sensor_id;sensor_type;location;lat;lon;timestamp;temperature;humidity
11812;DHT22;5963;50.184;9.162;2023-10-19T00:00:55;9.70;99.90
11812;DHT22;5963;50.184;9.162;2023-10-19T00:03:24;9.80;99.90
11812;DHT22;5963;50.184;9.162;2023-10-19T00:05:53;9.80;99.90
11812;DHT22;5963;50.184;9.162;2023-10-19T00:08:22;9.90;99.90
11812;DHT22;5963;50.184;9.162;2023-10-19T00:10:51;10.00;99.90
11812;DHT22;5963;50.184;9.162;2023-10-19T00:13:28;9.90;99.90
11812;DHT22;5963;50.184;9.162;2023-10-19T00:15:58;9.90;99.90
11812;DHT22;5963;50.184;9.162;2023-10-19T00:18:25;10.00;99.90
11812;DHT22;5963;50.184;9.162;2023-10-19T00:20:54;10.00;99.90
11812;DHT22;5963;50.184;9.162;2023-10-19T00:23:26;10.00;99.90
11812;DHT22;5963;50.184;9.162;2023-10-19T00:25:59;10.10;99.90
11812;DHT22;5963;50.184;9.162;2023-10-19T00:28:26;10.00;99.90
11812;DHT22;5963;50.184;9.162;2023-10-19T00:30:54;10.00;99.90
11812;DHT22;5963;50.184;9.162;2023-10-19T00:33:31;10.00;99.90
11812;DHT22;5963;50.184;9.162;2023-10-19T00:35:59;10.10;99.90
11812;DHT22;5963;50.184;9.162;2023-10-19T00:38:34;10.00;99.90
11812;DHT22;5963;50.184;9.162;2023-10-19T00:41:15;10.10;99.90
11812;DHT22;5963;50.184;9.162;2023-10-19T00:43:49;10.20;99.90
11812;DHT22;5963;50.184;9.162;2023-10-19T00:46:19;10.10;99.90
11812;DHT22;5963;50.184;9.162;2023-10-19T00:48:55;10.10;99.90
11812;DHT22;5963;50.184;9.162;2023-10-19T00:51:27;10.10;99.90
11812;DHT22;5963;50.184;9.162;2023-10-19T00:54:10;10.20;99.90
11812;DHT22;5963;50.184;9.162;2023-10-19T00:56:43;10.30;99.90
11812;DHT22;5963;50.184;9.162;2023-10-19T00:59:18;10.20;99.90
11812;DHT22;5963;50.184;9.162;2023-10-19T01:01:50;10.30;99.90
11812;DHT22;5963;50.184;9.162;2023-10-19T01:04:22;10.30;99.90
11812;DHT22;5963;50.184;9.162;2023-10-19T01:06:52;10.40;99.90
11812;DHT22;5963;50.184;9.162;2023-10-19T01:09:32;10.40;99.90
11812;DHT22;5963;50.184;9.162;2023-10-19T01:12:03;10.40;99.90
11812;DHT22;5963;50.184;9.162;2023-10-19T01:15:01;10.40;99.90
11812;DHT22;5963;50.184;9.162;2023-10-19T01:17:30;10.50;99.90
11812;DHT22;5963;50.184;9.162;2023-10-19T01:20:02;10.50;99.90
11812;DHT22;5963;50.184;9.162;2023-10-19T01:22:54;10.50;99.90
11812;DHT22;5963;50.184;9.162;2023-10-19T01:25:33;10.50;99.90
11812;DHT22;5963;50.184;9.162;2023-10-19T01:28:09;10.50;99.90
11812;DHT22;5963;50.184;9.162;2023-10-19T01:30:40;10.40;99.90
11812;DHT22;5963;50.184;9.162;2023-10-19T01:33:08;10.50;99.90
11812;DHT22;5963;50.184;9.162;2023-10-19T01:35:40;10.50;99.90
11812;DHT22;5963;50.184;9.162;2023-10-19T01:38:23;10.50;99.90
11812;DHT22;5963;50.184;9.162;2023-10-19T01:40:51;10.50;99.90
11812;DHT22;5963;50.184;9.162;2023-10-19T01:43:21;10.60;99.90
11812;DHT22;5963;50.184;9.162;2023-10-19T01:45:52;10.60;99.90
11812;DHT22;5963;50.184;9.162;2023-10-19T01:48:21;10.60;99.90
11812;DHT22;5963;50.184;9.162;2023-10-19T01:51:01;10.60;99.90
11812;DHT22;5963;50.184;9.162;2023-10-19T01:53:32;10.60;99.90
11812;DHT22;5963;50.184;9.162;2023-10-19T01:56:01;10.60;99.90
11812;DHT22;5963;50.184;9.162;2023-10-19T01:58:32;10.60;99.90
11812;DHT22;5963;50.184;9.162;2023-10-19T02:01:03;10.60;99.90
11812;DHT22;5963;50.184;9.162;2023-10-19T02:03:35;10.60;99.90
11812;DHT22;5963;50.184;9.162;2023-10-19T02:06:09;10.70;99.90
11812;DHT22;5963;50.184;9.162;2023-10-19T02:08:49;10.60;99.90
11812;DHT22;5963;50.184;9.162;2023-10-19T02:11:19;10.70;99.90
11812;DHT22;5963;50.184;9.162;2023-10-19T02:13:49;10.80;99.90
11812;DHT22;5963;50.184;9.162;2023-10-19T02:16:18;10.80;99.90
11812;DHT22;5963;50.184;9.162;2023-10-19T02:18:50;10.80;99.90
11812;DHT22;5963;50.184;9.162;2023-10-19T02:21:17;10.80;99.90
11812;DHT22;5963;50.184;9.162;2023-10-19T02:23:50;10.90;99.90
11812;DHT22;5963;50.184;9.162;2023-10-19T02:26:17;11.00;99.90
11812;DHT22;5963;50.184;9.162;2023-10-19T02:28:46;11.10;99.90
11812;DHT22;5963;50.184;9.162;2023-10-19T02:31:13;11.10;99.90
11812;DHT22;5963;50.184;9.162;2023-10-19T02:33:46;11.10;99.90
11812;DHT22;5963;50.184;9.162;2023-10-19T02:36:13;11.10;99.90
11812;DHT22;5963;50.184;9.162;2023-10-19T02:38:43;11.20;99.90
11812;DHT22;5963;50.184;9.162;2023-10-19T02:41:17;11.20;99.90
11812;DHT22;5963;50.184;9.162;2023-10-19T02:43:46;11.20;99.90
11812;DHT22;5963;50.184;9.162;2023-10-19T02:46:14;11.30;99.90
11812;DHT22;5963;50.184;9.162;2023-10-19T02:48:44;11.30;99.90
11812;DHT22;5963;50.184;9.162;2023-10-19T02:51:11;11.40;99.90
11812;DHT22;5963;50.184;9.162;2023-10-19T02:53:40;11.40;99.90
11812;DHT22;5963;50.184;9.162;2023-10-19T02:56:10;11.40;99.90
11812;DHT22;5963;50.184;9.162;2023-10-19T02:58:43;11.40;99.90
11812;DHT22;5963;50.184;9.162;2023-10-19T03:01:15;11.50;99.90
11812;DHT22;5963;50.184;9.162;2023-10-19T03:03:45;11.50;99.90
11812;DHT22;5963;50.184;9.162;2023-10-19T03:06:13;11.50;99.90
11812;DHT22;5963;50.184;9.162;2023-10-19T03:08:42;11.50;99.90
11812;DHT22;5963;50.184;9.162;2023-10-19T03:11:09;11.50;99.90
11812;DHT22;5963;50.184;9.162;2023-10-19T03:13:41;11.50;99.90
11812;DHT22;5963;50.184;9.162;2023-10-19T03:16:10;11.60;99.90
11812;DHT22;5963;50.184;9.162;2023-10-19T03:18:38;11.60;99.90
11812;DHT22;5963;50.184;9.162;2023-10-19T03:21:05;11.70;99.90
11812;DHT22;5963;50.184;9.162;2023-10-19T03:23:34;11.70;99.90
11812;DHT22;5963;50.184;9.162;2023-10-19T03:26:01;11.70;99.90
11812;DHT22;5963;50.184;9.162;2023-10-19T03:28:47;11.70;99.90
11812;DHT22;5963;50.184;9.162;2023-10-19T03:31:15;11.70;99.90
11812;DHT22;5963;50.184;9.162;2023-10-19T03:33:45;11.70;99.90
11812;DHT22;5963;50.184;9.162;2023-10-19T03:36:17;11.70;99.90
11812;DHT22;5963;50.184;9.162;2023-10-19T03:38:45;11.80;99.90
11812;DHT22;5963;50.184;9.162;2023-10-19T03:41:13;11.80;99.90
11812;DHT22;5963;50.184;9.162;2023-10-19T03:43:41;11.80;99.90
11812;DHT22;5963;50.184;9.162;2023-10-19T03:46:12;11.80;99.90
11812;DHT22;5963;50.184;9.162;2023-10-19T03:48:49;11.90;99.90
11812;DHT22;5963;50.184;9.162;2023-10-19T03:51:17;11.90;99.90
11812;DHT22;5963;50.184;9.162;2023-10-19T03:53:45;12.00;99.90
11812;DHT22;5963;50.184;9.162;2023-10-19T03:56:21;12.00;99.90
11812;DHT22;5963;50.184;9.162;2023-10-19T03:58:50;12.00;99.90
11812;DHT22;5963;50.184;9.162;2023-10-19T04:01:19;12.00;99.90
11812;DHT22;5963;50.184;9.162;2023-10-19T04:03:48;12.00;99.90
11812;DHT22;5963;50.184;9.162;2023-10-19T04:06:19;12.10;99.90
11812;DHT22;5963;50.184;9.162;2023-10-19T04:08:47;12.10;99.90
11812;DHT22;5963;50.184;9.162;2023-10-19T04:11:17;12.10;99.90
11812;DHT22;5963;50.184;9.162;2023-10-19T04:13:59;12.10;99.90
11812;DHT22;5963;50.184;9.162;2023-10-19T04:16:31;12.00;99.90
11812;DHT22;5963;50.184;9.162;2023-10-19T04:19:04;11.90;99.90
11812;DHT22;5963;50.184;9.162;2023-10-19T04:21:31;12.00;99.90
11812;DHT22;5963;50.184;9.162;2023-10-19T04:24:05;12.00;99.90
11812;DHT22;5963;50.184;9.162;2023-10-19T04:26:33;12.00;99.90
11812;DHT22;5963;50.184;9.162;2023-10-19T04:29:04;12.10;99.90
11812;DHT22;5963;50.184;9.162;2023-10-19T04:31:38;12.00;99.90
11812;DHT22;5963;50.184;9.162;2023-10-19T04:34:09;12.00;99.90
11812;DHT22;5963;50.184;9.162;2023-10-19T04:36:37;11.80;99.90
11812;DHT22;5963;50.184;9.162;2023-10-19T04:39:06;11.80;99.90
11812;DHT22;5963;50.184;9.162;2023-10-19T04:41:39;11.80;99.90
11812;DHT22;5963;50.184;9.162;2023-10-19T04:44:07;11.90;99.90
11812;DHT22;5963;50.184;9.162;2023-10-19T04:46:38;11.90;99.90
11812;DHT22;5963;50.184;9.162;2023-10-19T04:49:08;12.00;99.90
11812;DHT22;5963;50.184;9.162;2023-10-19T04:51:37;11.90;99.90
11812;DHT22;5963;50.184;9.162;2023-10-19T04:54:06;11.80;99.90
11812;DHT22;5963;50.184;9.162;2023-10-19T04:56:35;11.90;99.90
11812;DHT22;5963;50.184;9.162;2023-10-19T04:59:03;12.00;99.90
11812;DHT22;5963;50.184;9.162;2023-10-19T05:01:32;12.00;99.90
11812;DHT22;5963;50.184;9.162;2023-10-19T05:04:02;11.90;99.90
11812;DHT22;5963;50.184;9.162;2023-10-19T05:06:30;11.80;99.90
11812;DHT22;5963;50.184;9.162;2023-10-19T05:08:58;11.70;99.90
11812;DHT22;5963;50.184;9.162;2023-10-19T05:11:26;11.70;99.90
11812;DHT22;5963;50.184;9.162;2023-10-19T05:13:55;11.70;99.90
11812;DHT22;5963;50.184;9.162;2023-10-19T05:16:23;11.70;99.90
11812;DHT22;5963;50.184;9.162;2023-10-19T05:18:51;11.80;99.90
11812;DHT22;5963;50.184;9.162;2023-10-19T05:21:20;11.70;99.90
11812;DHT22;5963;50.184;9.162;2023-10-19T05:23:48;11.70;99.90
11812;DHT22;5963;50.184;9.162;2023-10-19T05:26:16;11.60;99.90
11812;DHT22;5963;50.184;9.162;2023-10-19T05:28:44;11.50;99.90
11812;DHT22;5963;50.184;9.162;2023-10-19T05:31:13;11.50;99.90
11812;DHT22;5963;50.184;9.162;2023-10-19T05:33:42;11.40;99.90
11812;DHT22;5963;50.184;9.162;2023-10-19T05:36:10;11.40;99.90
11812;DHT22;5963;50.184;9.162;2023-10-19T05:38:39;11.50;99.90
11812;DHT22;5963;50.184;9.162;2023-10-19T05:41:07;11.50;99.90
11812;DHT22;5963;50.184;9.162;2023-10-19T05:43:37;11.40;99.90
11812;DHT22;5963;50.184;9.162;2023-10-19T05:46:05;11.50;99.90
11812;DHT22;5963;50.184;9.162;2023-10-19T05:48:33;11.50;99.90
11812;DHT22;5963;50.184;9.162;2023-10-19T05:51:01;11.50;99.90
11812;DHT22;5963;50.184;9.162;2023-10-19T05:53:29;11.40;99.90
11812;DHT22;5963;50.184;9.162;2023-10-19T05:55:58;11.50;99.90
11812;DHT22;5963;50.184;9.162;2023-10-19T05:58:26;11.50;99.90
11812;DHT22;5963;50.184;9.162;2023-10-19T06:00:58;11.50;99.90
11812;DHT22;5963;50.184;9.162;2023-10-19T06:03:26;11.50;99.90
11812;DHT22;5963;50.184;9.162;2023-10-19T06:05:55;11.40;99.90
11812;DHT22;5963;50.184;9.162;2023-10-19T06:08:23;11.30;99.90
11812;DHT22;5963;50.184;9.162;2023-10-19T06:10:51;11.30;99.90
11812;DHT22;5963;50.184;9.162;2023-10-19T06:13:22;11.40;99.90
11812;DHT22;5963;50.184;9.162;2023-10-19T06:15:50;11.50;99.90
11812;DHT22;5963;50.184;9.162;2023-10-19T06:18:18;11.60;99.90
11812;DHT22;5963;50.184;9.162;2023-10-19T06:20:46;11.50;99.90
11812;DHT22;5963;50.184;9.162;2023-10-19T06:23:14;11.60;99.90
11812;DHT22;5963;50.184;9.162;2023-10-19T06:25:43;11.60;99.90
11812;DHT22;5963;50.184;9.162;2023-10-19T06:28:12;11.60;99.90
11812;DHT22;5963;50.184;9.162;2023-10-19T06:30:41;11.60;99.90
11812;DHT22;5963;50.184;9.162;2023-10-19T06:33:10;11.70;99.90
11812;DHT22;5963;50.184;9.162;2023-10-19T06:35:38;11.60;99.90
11812;DHT22;5963;50.184;9.162;2023-10-19T06:38:06;11.70;99.90
11812;DHT22;5963;50.184;9.162;2023-10-19T06:40:36;11.70;99.90
11812;DHT22;5963;50.184;9.162;2023-10-19T06:43:04;11.80;99.90
11812;DHT22;5963;50.184;9.162;2023-10-19T06:45:32;11.70;99.90
11812;DHT22;5963;50.184;9.162;2023-10-19T06:48:02;11.70;99.90
11812;DHT22;5963;50.184;9.162;2023-10-19T06:50:31;11.70;99.90
11812;DHT22;5963;50.184;9.162;2023-10-19T06:52:59;11.80;99.90
11812;DHT22;5963;50.184;9.162;2023-10-19T06:55:27;11.80;99.90
11812;DHT22;5963;50.184;9.162;2023-10-19T06:57:55;11.90;99.90
11812;DHT22;5963;50.184;9.162;2023-10-19T07:00:24;11.90;99.90
11812;DHT22;5963;50.184;9.162;2023-10-19T07:02:55;11.90;99.90
11812;DHT22;5963;50.184;9.162;2023-10-19T07:05:24;12.00;99.90
11812;DHT22;5963;50.184;9.162;2023-10-19T07:07:57;12.00;99.90
11812;DHT22;5963;50.184;9.162;2023-10-19T07:10:27;12.10;99.90
11812;DHT22;5963;50.184;9.162;2023-10-19T07:12:56;12.10;99.90
11812;DHT22;5963;50.184;9.162;2023-10-19T07:15:24;12.20;99.90
11812;DHT22;5963;50.184;9.162;2023-10-19T07:17:53;12.40;99.90
11812;DHT22;5963;50.184;9.162;2023-10-19T07:20:22;12.50;99.90
11812;DHT22;5963;50.184;9.162;2023-10-19T07:22:56;12.60;99.90
11812;DHT22;5963;50.184;9.162;2023-10-19T07:25:26;12.70;99.90
11812;DHT22;5963;50.184;9.162;2023-10-19T07:27:54;12.90;99.90
11812;DHT22;5963;50.184;9.162;2023-10-19T07:30:22;12.90;99.90
11812;DHT22;5963;50.184;9.162;2023-10-19T07:32:53;13.00;99.90
11812;DHT22;5963;50.184;9.162;2023-10-19T07:35:25;13.10;99.90
11812;DHT22;5963;50.184;9.162;2023-10-19T07:37:55;13.00;99.90
11812;DHT22;5963;50.184;9.162;2023-10-19T07:40:24;13.10;99.90
11812;DHT22;5963;50.184;9.162;2023-10-19T07:42:52;13.30;99.90
11812;DHT22;5963;50.184;9.162;2023-10-19T07:45:21;13.60;99.90
11812;DHT22;5963;50.184;9.162;2023-10-19T07:47:49;13.80;99.90
11812;DHT22;5963;50.184;9.162;2023-10-19T07:50:17;13.90;99.90
11812;DHT22;5963;50.184;9.162;2023-10-19T07:52:49;14.10;99.90
11812;DHT22;5963;50.184;9.162;2023-10-19T07:55:21;14.30;99.90
11812;DHT22;5963;50.184;9.162;2023-10-19T07:57:51;14.50;99.90
11812;DHT22;5963;50.184;9.162;2023-10-19T08:00:20;14.60;99.90
11812;DHT22;5963;50.184;9.162;2023-10-19T08:02:50;14.60;99.90
11812;DHT22;5963;50.184;9.162;2023-10-19T08:05:18;14.60;99.90
11812;DHT22;5963;50.184;9.162;2023-10-19T08:07:46;14.50;99.90
11812;DHT22;5963;50.184;9.162;2023-10-19T08:10:16;14.50;99.90
11812;DHT22;5963;50.184;9.162;2023-10-19T08:12:47;14.50;99.90
11812;DHT22;5963;50.184;9.162;2023-10-19T08:15:16;14.40;99.90
11812;DHT22;5963;50.184;9.162;2023-10-19T08:17:46;14.50;99.90
11812;DHT22;5963;50.184;9.162;2023-10-19T08:20:15;14.80;99.90
11812;DHT22;5963;50.184;9.162;2023-10-19T08:22:51;14.80;99.90
11812;DHT22;5963;50.184;9.162;2023-10-19T08:25:20;14.80;99.90
11812;DHT22;5963;50.184;9.162;2023-10-19T08:27:50;14.90;99.90
11812;DHT22;5963;50.184;9.162;2023-10-19T08:30:20;15.10;99.90
11812;DHT22;5963;50.184;9.162;2023-10-19T08:32:52;15.40;99.90
11812;DHT22;5963;50.184;9.162;2023-10-19T08:35:21;15.60;99.90
11812;DHT22;5963;50.184;9.162;2023-10-19T08:37:53;15.80;99.90
11812;DHT22;5963;50.184;9.162;2023-10-19T08:40:21;15.90;99.90
11812;DHT22;5963;50.184;9.162;2023-10-19T08:42:51;16.10;99.90
11812;DHT22;5963;50.184;9.162;2023-10-19T08:45:20;16.30;99.90
11812;DHT22;5963;50.184;9.162;2023-10-19T08:47:53;16.50;99.90
11812;DHT22;5963;50.184;9.162;2023-10-19T08:50:24;16.50;99.90
11812;DHT22;5963;50.184;9.162;2023-10-19T08:52:53;16.60;99.90
11812;DHT22;5963;50.184;9.162;2023-10-19T08:55:21;16.50;99.90
11812;DHT22;5963;50.184;9.162;2023-10-19T08:58:11;16.30;99.90
11812;DHT22;5963;50.184;9.162;2023-10-19T09:00:46;16.30;99.90
11812;DHT22;5963;50.184;9.162;2023-10-19T09:03:16;16.30;99.90
11812;DHT22;5963;50.184;9.162;2023-10-19T09:05:45;16.30;99.90
11812;DHT22;5963;50.184;9.162;2023-10-19T09:08:15;16.20;99.90
11812;DHT22;5963;50.184;9.162;2023-10-19T09:10:45;16.20;99.90
11812;DHT22;5963;50.184;9.162;2023-10-19T09:13:15;16.20;99.90
11812;DHT22;5963;50.184;9.162;2023-10-19T09:15:47;16.30;99.90
11812;DHT22;5963;50.184;9.162;2023-10-19T09:18:18;16.40;99.90
11812;DHT22;5963;50.184;9.162;2023-10-19T09:20:48;16.80;99.90
11812;DHT22;5963;50.184;9.162;2023-10-19T09:23:29;17.10;99.90
11812;DHT22;5963;50.184;9.162;2023-10-19T09:25:59;17.40;99.90
11812;DHT22;5963;50.184;9.162;2023-10-19T09:28:31;17.50;99.90
11812;DHT22;5963;50.184;9.162;2023-10-19T09:31:01;17.50;99.90
11812;DHT22;5963;50.184;9.162;2023-10-19T09:33:32;17.70;99.90
11812;DHT22;5963;50.184;9.162;2023-10-19T09:36:03;17.60;99.90
11812;DHT22;5963;50.184;9.162;2023-10-19T09:38:39;17.70;99.90
11812;DHT22;5963;50.184;9.162;2023-10-19T09:41:12;17.90;99.90
11812;DHT22;5963;50.184;9.162;2023-10-19T09:43:44;18.10;99.90
11812;DHT22;5963;50.184;9.162;2023-10-19T09:46:20;18.40;99.90
11812;DHT22;5963;50.184;9.162;2023-10-19T09:48:49;18.70;99.90
11812;DHT22;5963;50.184;9.162;2023-10-19T09:51:19;18.70;99.90
11812;DHT22;5963;50.184;9.162;2023-10-19T09:53:51;18.70;99.90
11812;DHT22;5963;50.184;9.162;2023-10-19T09:56:23;18.50;99.90
11812;DHT22;5963;50.184;9.162;2023-10-19T09:58:59;18.30;99.90
11812;DHT22;5963;50.184;9.162;2023-10-19T10:02:05;18.00;99.90
11812;DHT22;5963;50.184;9.162;2023-10-19T10:04:34;17.80;99.90
11812;DHT22;5963;50.184;9.162;2023-10-19T10:07:04;17.60;99.90
11812;DHT22;5963;50.184;9.162;2023-10-19T10:09:35;17.70;99.90
11812;DHT22;5963;50.184;9.162;2023-10-19T10:12:19;17.70;99.90
11812;DHT22;5963;50.184;9.162;2023-10-19T10:14:59;17.70;99.90
11812;DHT22;5963;50.184;9.162;2023-10-19T10:17:33;17.70;99.90
11812;DHT22;5963;50.184;9.162;2023-10-19T10:20:30;17.90;99.90
11812;DHT22;5963;50.184;9.162;2023-10-19T10:23:18;18.00;99.90
11812;DHT22;5963;50.184;9.162;2023-10-19T10:25:49;17.80;99.90
11812;DHT22;5963;50.184;9.162;2023-10-19T10:28:18;18.10;99.90
11812;DHT22;5963;50.184;9.162;2023-10-19T10:31:09;18.10;99.90
11812;DHT22;5963;50.184;9.162;2023-10-19T10:33:42;18.30;99.90
11812;DHT22;5963;50.184;9.162;2023-10-19T10:36:12;18.50;99.90
11812;DHT22;5963;50.184;9.162;2023-10-19T10:38:40;18.60;99.90
11812;DHT22;5963;50.184;9.162;2023-10-19T10:41:08;18.60;99.90
11812;DHT22;5963;50.184;9.162;2023-10-19T10:43:54;18.70;99.90
11812;DHT22;5963;50.184;9.162;2023-10-19T10:46:26;18.80;99.90
11812;DHT22;5963;50.184;9.162;2023-10-19T10:48:56;18.80;99.90
11812;DHT22;5963;50.184;9.162;2023-10-19T10:51:26;18.80;99.90
11812;DHT22;5963;50.184;9.162;2023-10-19T10:53:57;18.70;99.90
11812;DHT22;5963;50.184;9.162;2023-10-19T10:56:25;18.40;99.90
11812;DHT22;5963;50.184;9.162;2023-10-19T10:58:53;18.20;99.90
11812;DHT22;5963;50.184;9.162;2023-10-19T11:01:29;18.20;99.90
11812;DHT22;5963;50.184;9.162;2023-10-19T11:04:06;18.30;99.90
11812;DHT22;5963;50.184;9.162;2023-10-19T11:06:47;18.40;99.90
11812;DHT22;5963;50.184;9.162;2023-10-19T11:09:16;18.50;99.90
11812;DHT22;5963;50.184;9.162;2023-10-19T11:11:45;18.70;99.90
11812;DHT22;5963;50.184;9.162;2023-10-19T11:14:13;18.90;99.90
11812;DHT22;5963;50.184;9.162;2023-10-19T11:16:42;19.10;99.90
11812;DHT22;5963;50.184;9.162;2023-10-19T11:19:10;19.50;99.90
11812;DHT22;5963;50.184;9.162;2023-10-19T11:21:51;19.90;99.90
11812;DHT22;5963;50.184;9.162;2023-10-19T11:24:25;19.70;99.90
11812;DHT22;5963;50.184;9.162;2023-10-19T11:26:53;20.10;99.90
11812;DHT22;5963;50.184;9.162;2023-10-19T11:29:22;19.70;99.90
11812;DHT22;5963;50.184;9.162;2023-10-19T11:31:58;19.30;99.90
11812;DHT22;5963;50.184;9.162;2023-10-19T11:34:28;19.20;99.90
11812;DHT22;5963;50.184;9.162;2023-10-19T11:36:57;18.80;99.90
11812;DHT22;5963;50.184;9.162;2023-10-19T11:39:27;18.60;99.90
11812;DHT22;5963;50.184;9.162;2023-10-19T11:41:55;18.30;99.90
11812;DHT22;5963;50.184;9.162;2023-10-19T11:44:24;18.40;99.90
11812;DHT22;5963;50.184;9.162;2023-10-19T11:46:51;18.50;99.90
11812;DHT22;5963;50.184;9.162;2023-10-19T11:49:21;18.70;99.90
11812;DHT22;5963;50.184;9.162;2023-10-19T11:51:52;18.80;99.90
11812;DHT22;5963;50.184;9.162;2023-10-19T11:54:20;18.70;99.90
11812;DHT22;5963;50.184;9.162;2023-10-19T11:56:48;18.50;99.90
11812;DHT22;5963;50.184;9.162;2023-10-19T11:59:16;18.50;99.90
11812;DHT22;5963;50.184;9.162;2023-10-19T12:01:44;18.50;99.90
11812;DHT22;5963;50.184;9.162;2023-10-19T12:04:13;18.40;99.90
11812;DHT22;5963;50.184;9.162;2023-10-19T12:06:42;18.40;99.90
11812;DHT22;5963;50.184;9.162;2023-10-19T12:09:12;18.40;99.90
11812;DHT22;5963;50.184;9.162;2023-10-19T12:11:42;18.30;99.90
11812;DHT22;5963;50.184;9.162;2023-10-19T12:14:14;18.20;99.90
11812;DHT22;5963;50.184;9.162;2023-10-19T12:16:42;18.20;99.90
11812;DHT22;5963;50.184;9.162;2023-10-19T12:19:12;18.20;99.90
11812;DHT22;5963;50.184;9.162;2023-10-19T12:21:41;18.10;99.90
11812;DHT22;5963;50.184;9.162;2023-10-19T12:24:10;18.20;99.90
11812;DHT22;5963;50.184;9.162;2023-10-19T12:26:38;18.30;99.90
11812;DHT22;5963;50.184;9.162;2023-10-19T12:29:06;18.40;99.90
11812;DHT22;5963;50.184;9.162;2023-10-19T12:31:38;18.60;99.90
11812;DHT22;5963;50.184;9.162;2023-10-19T12:34:07;18.60;99.90
11812;DHT22;5963;50.184;9.162;2023-10-19T12:36:38;18.60;99.90
11812;DHT22;5963;50.184;9.162;2023-10-19T12:39:09;18.70;99.90
11812;DHT22;5963;50.184;9.162;2023-10-19T12:41:42;18.80;99.90
11812;DHT22;5963;50.184;9.162;2023-10-19T12:44:10;18.60;99.90
11812;DHT22;5963;50.184;9.162;2023-10-19T12:46:39;18.50;99.90
11812;DHT22;5963;50.184;9.162;2023-10-19T12:49:08;18.50;99.90
11812;DHT22;5963;50.184;9.162;2023-10-19T12:51:41;18.30;99.90
11812;DHT22;5963;50.184;9.162;2023-10-19T12:54:12;18.10;99.90
11812;DHT22;5963;50.184;9.162;2023-10-19T12:56:40;18.10;99.90
11812;DHT22;5963;50.184;9.162;2023-10-19T12:59:08;18.00;99.90
11812;DHT22;5963;50.184;9.162;2023-10-19T13:01:36;18.00;99.90
11812;DHT22;5963;50.184;9.162;2023-10-19T13:04:05;17.90;99.90
11812;DHT22;5963;50.184;9.162;2023-10-19T13:06:41;18.00;99.90
11812;DHT22;5963;50.184;9.162;2023-10-19T13:09:09;17.90;99.90
11812;DHT22;5963;50.184;9.162;2023-10-19T13:11:39;17.90;99.90
11812;DHT22;5963;50.184;9.162;2023-10-19T13:14:10;17.90;99.90
11812;DHT22;5963;50.184;9.162;2023-10-19T13:16:39;17.80;99.90
11812;DHT22;5963;50.184;9.162;2023-10-19T13:19:07;17.80;99.90
11812;DHT22;5963;50.184;9.162;2023-10-19T13:21:39;17.80;99.90
11812;DHT22;5963;50.184;9.162;2023-10-19T13:24:09;17.80;99.90
11812;DHT22;5963;50.184;9.162;2023-10-19T13:26:38;17.80;99.90
11812;DHT22;5963;50.184;9.162;2023-10-19T13:29:09;17.80;99.90
11812;DHT22;5963;50.184;9.162;2023-10-19T13:31:37;17.70;99.90
11812;DHT22;5963;50.184;9.162;2023-10-19T13:34:06;17.60;99.90
11812;DHT22;5963;50.184;9.162;2023-10-19T13:36:37;17.30;99.90
11812;DHT22;5963;50.184;9.162;2023-10-19T13:39:05;17.20;99.90
11812;DHT22;5963;50.184;9.162;2023-10-19T13:41:41;17.20;99.90
11812;DHT22;5963;50.184;9.162;2023-10-19T13:44:09;17.20;99.90
11812;DHT22;5963;50.184;9.162;2023-10-19T13:46:38;17.30;99.90
11812;DHT22;5963;50.184;9.162;2023-10-19T13:49:06;17.30;99.90
11812;DHT22;5963;50.184;9.162;2023-10-19T13:51:36;17.10;99.90
11812;DHT22;5963;50.184;9.162;2023-10-19T13:54:05;16.80;99.90
11812;DHT22;5963;50.184;9.162;2023-10-19T13:56:34;16.90;99.90
11812;DHT22;5963;50.184;9.162;2023-10-19T13:59:04;16.90;99.90
11812;DHT22;5963;50.184;9.162;2023-10-19T14:01:33;17.00;99.90
11812;DHT22;5963;50.184;9.162;2023-10-19T14:04:01;16.90;99.90
11812;DHT22;5963;50.184;9.162;2023-10-19T14:06:29;16.90;99.90
11812;DHT22;5963;50.184;9.162;2023-10-19T14:08:57;16.90;99.90
11812;DHT22;5963;50.184;9.162;2023-10-19T14:11:25;16.90;99.90
11812;DHT22;5963;50.184;9.162;2023-10-19T14:13:53;17.00;99.90
11812;DHT22;5963;50.184;9.162;2023-10-19T14:16:23;16.80;99.90
11812;DHT22;5963;50.184;9.162;2023-10-19T14:18:52;16.80;99.90
11812;DHT22;5963;50.184;9.162;2023-10-19T14:21:20;16.80;99.90
11812;DHT22;5963;50.184;9.162;2023-10-19T14:23:50;16.90;99.90
11812;DHT22;5963;50.184;9.162;2023-10-19T14:26:18;16.90;99.90
11812;DHT22;5963;50.184;9.162;2023-10-19T14:28:46;17.00;99.90
11812;DHT22;5963;50.184;9.162;2023-10-19T14:31:15;16.90;99.90
11812;DHT22;5963;50.184;9.162;2023-10-19T14:33:45;16.90;99.90
11812;DHT22;5963;50.184;9.162;2023-10-19T14:36:13;16.90;99.90
11812;DHT22;5963;50.184;9.162;2023-10-19T14:38:41;16.70;99.90
11812;DHT22;5963;50.184;9.162;2023-10-19T14:41:11;16.60;99.90
11812;DHT22;5963;50.184;9.162;2023-10-19T14:43:39;16.50;99.90
11812;DHT22;5963;50.184;9.162;2023-10-19T14:46:07;16.50;99.90
11812;DHT22;5963;50.184;9.162;2023-10-19T14:48:35;16.40;99.90
11812;DHT22;5963;50.184;9.162;2023-10-19T14:51:05;16.40;99.90
11812;DHT22;5963;50.184;9.162;2023-10-19T14:53:34;16.40;99.90
11812;DHT22;5963;50.184;9.162;2023-10-19T14:56:02;16.40;99.90
11812;DHT22;5963;50.184;9.162;2023-10-19T14:58:30;16.20;99.90
11812;DHT22;5963;50.184;9.162;2023-10-19T15:00:58;16.20;99.90
11812;DHT22;5963;50.184;9.162;2023-10-19T15:03:26;16.20;99.90
11812;DHT22;5963;50.184;9.162;2023-10-19T15:05:55;16.20;99.90
11812;DHT22;5963;50.184;9.162;2023-10-19T15:08:27;16.00;99.90
11812;DHT22;5963;50.184;9.162;2023-10-19T15:10:58;15.90;99.90
11812;DHT22;5963;50.184;9.162;2023-10-19T15:13:27;15.90;99.90
11812;DHT22;5963;50.184;9.162;2023-10-19T15:15:54;15.90;99.90
11812;DHT22;5963;50.184;9.162;2023-10-19T15:18:23;15.80;99.90
11812;DHT22;5963;50.184;9.162;2023-10-19T15:20:51;15.80;99.90
11812;DHT22;5963;50.184;9.162;2023-10-19T15:23:21;15.80;99.90
11812;DHT22;5963;50.184;9.162;2023-10-19T15:25:50;15.80;99.90
11812;DHT22;5963;50.184;9.162;2023-10-19T15:28:18;15.70;99.90
11812;DHT22;5963;50.184;9.162;2023-10-19T15:30:46;15.70;99.90
11812;DHT22;5963;50.184;9.162;2023-10-19T15:33:19;15.70;99.90
11812;DHT22;5963;50.184;9.162;2023-10-19T15:35:47;15.70;99.90
11812;DHT22;5963;50.184;9.162;2023-10-19T15:38:15;15.60;99.90
11812;DHT22;5963;50.184;9.162;2023-10-19T15:40:43;15.60;99.90
11812;DHT22;5963;50.184;9.162;2023-10-19T15:43:13;15.50;99.90
11812;DHT22;5963;50.184;9.162;2023-10-19T15:45:41;15.40;99.90
11812;DHT22;5963;50.184;9.162;2023-10-19T15:48:11;15.20;99.90
11812;DHT22;5963;50.184;9.162;2023-10-19T15:50:40;15.10;99.90
11812;DHT22;5963;50.184;9.162;2023-10-19T15:53:08;15.10;99.90
11812;DHT22;5963;50.184;9.162;2023-10-19T15:55:37;15.10;99.90
11812;DHT22;5963;50.184;9.162;2023-10-19T15:58:05;15.00;99.90
11812;DHT22;5963;50.184;9.162;2023-10-19T16:00:36;15.00;99.90
11812;DHT22;5963;50.184;9.162;2023-10-19T16:03:05;15.00;99.90
11812;DHT22;5963;50.184;9.162;2023-10-19T16:05:35;14.80;99.90
11812;DHT22;5963;50.184;9.162;2023-10-19T16:08:04;14.90;99.90